Mc Kenney, Virginia
Current Conditions -  °F | °C
As of 5:35 PM on Monday 20 Oct 2014 (Local Time) from KBKT Reporting Station
Clear Clear  
Wind Chill: 64°   Ceiling: Unl
Heat Index: 64°   Visibility: 10mi
Dew Point: 44°   Wind: 10mph
Humidity: 48%   Direction: 180°S
Pressure: 29.98"   Gusts: NA
Location:  37.0016°N, 77.7543°W
Report Text: KBKT 202135Z AUTO 18009KT 10SM CLR 18/07 A2998 RMK AO1 T01790067
Loading
Personal Weather Stations






























Interactive Weather Map
Tropical Storm Tracking
New forecast layout! Learn more

10-Day Weather Forecast

Advertisements
Track Severe Weather on mobile